Time;durP1;ratioP1;P1;durP2;ratioP2;P2;SDS_P1;SDS_P2;PMS_P1;PMS_P2;Temp;Humidity;BMP_temperature;BMP_pressure;BME280_temperature;BME280_humidity;BME280_pressure;Samples;Min_cycle;Max_cycle;Signal;HPM_P1;HPM_P2
2022/10/31 00:00:49;;;;;;;5.73;5.00;;;;;;;-144.22;100.00;60274.75;6224382;28;20788;-63
2022/10/31 00:03:52;;;;;;;4.60;4.20;;;;;;;-144.22;100.00;60274.75;6204991;28;20232;-63
2022/10/31 00:06:54;;;;;;;4.47;4.07;;;;;;;-144.22;100.00;60274.75;6205537;28;20227;-63
2022/10/31 00:09:56;;;;;;;5.83;5.33;;;;;;;-144.22;100.00;60274.75;6205302;28;20242;-63
2022/10/31 00:12:58;;;;;;;5.03;4.63;;;;;;;-144.22;100.00;60274.75;6212451;28;20647;-65
2022/10/31 00:16:00;;;;;;;5.67;5.17;;;;;;;-144.22;100.00;60274.75;6216134;28;20380;-63
2022/10/31 00:19:06;;;;;;;4.90;4.50;;;;;;;-144.22;100.00;60274.75;6221352;28;20227;-63
2022/10/31 00:22:08;;;;;;;4.50;4.10;;;;;;;-144.22;100.00;60274.75;6217634;28;20318;-63
2022/10/31 00:25:10;;;;;;;5.33;4.83;;;;;;;-144.22;100.00;60274.75;6214979;28;20604;-66
2022/10/31 00:28:12;;;;;;;5.10;4.63;;;;;;;-144.22;100.00;60274.75;6225077;28;20227;-63
2022/10/31 00:31:14;;;;;;;4.50;4.10;;;;;;;-144.22;100.00;60274.75;6223944;28;20555;-63
2022/10/31 00:34:18;;;;;;;3.83;3.53;;;;;;;-144.22;100.00;60274.75;6226308;28;20324;-63
2022/10/31 00:37:20;;;;;;;4.40;3.80;;;;;;;-144.22;100.00;60274.75;6222267;28;20238;-63
2022/10/31 00:40:22;;;;;;;3.40;3.10;;;;;;;-144.22;100.00;60274.75;6241898;28;20228;-66
2022/10/31 00:43:25;;;;;;;4.00;3.53;;;;;;;-144.22;100.00;60274.75;6244124;28;20235;-64
2022/10/31 00:46:28;;;;;;;3.20;2.90;;;;;;;-144.22;100.00;60274.75;6235719;28;20258;-64
2022/10/31 00:49:30;;;;;;;3.10;2.80;;;;;;;-144.22;100.00;60274.75;6220268;28;20238;-63
2022/10/31 00:52:32;;;;;;;3.27;3.07;;;;;;;-144.22;100.00;60274.75;6200074;28;20239;-63
2022/10/31 00:55:34;;;;;;;2.53;2.33;;;;;;;-144.22;100.00;60274.75;6212996;28;20240;-63
2022/10/31 00:58:37;;;;;;;4.63;3.03;;;;;;;-144.22;100.00;60274.75;6211624;28;20845;-63
2022/10/31 01:01:39;;;;;;;3.17;2.93;;;;;;;-144.22;100.00;60274.75;6215410;28;20380;-63
2022/10/31 01:04:41;;;;;;;3.47;3.17;;;;;;;-144.22;100.00;60274.75;6208245;28;20240;-63
2022/10/31 01:07:43;;;;;;;2.83;2.63;;;;;;;-144.22;100.00;60274.75;6198523;28;20322;-62
2022/10/31 01:10:45;;;;;;;2.63;2.43;;;;;;;-144.22;100.00;60274.75;6195246;28;20300;-62
2022/10/31 01:13:50;;;;;;;3.00;2.80;;;;;;;-144.22;100.00;60274.75;6214030;28;20241;-62
2022/10/31 01:16:52;;;;;;;2.70;2.50;;;;;;;-144.22;100.00;60274.75;6193656;28;20722;-63
2022/10/31 01:19:56;;;;;;;3.20;2.93;;;;;;;-144.22;100.00;60274.75;6207117;28;20218;-64
2022/10/31 01:23:01;;;;;;;3.50;3.20;;;;;;;-144.22;100.00;60274.75;6212659;28;20380;-63
2022/10/31 01:26:07;;;;;;;2.77;2.57;;;;;;;-144.22;100.00;60274.75;6198297;28;20521;-62
2022/10/31 01:29:09;;;;;;;3.57;3.23;;;;;;;-144.22;100.00;60274.75;6220080;28;20236;-63
2022/10/31 01:32:11;;;;;;;3.03;2.83;;;;;;;-144.22;100.00;60274.75;6192714;28;20227;-63
2022/10/31 01:35:13;;;;;;;3.00;2.80;;;;;;;-144.22;100.00;60274.75;6212647;28;20876;-63
2022/10/31 01:38:15;;;;;;;3.37;3.07;;;;;;;-144.22;100.00;60274.75;6198395;28;20321;-63
2022/10/31 01:41:22;;;;;;;2.70;2.50;;;;;;;-144.22;100.00;60274.75;6213506;28;20278;-64
2022/10/31 01:44:24;;;;;;;2.70;2.50;;;;;;;-144.22;100.00;60274.75;6200995;28;20702;-62
2022/10/31 01:47:39;;;;;;;3.20;2.90;;;;;;;-144.22;100.00;60274.75;6202767;28;20313;-62
2022/10/31 01:50:44;;;;;;;2.97;2.70;;;;;;;-144.22;100.00;60274.75;6216019;28;20233;-63
2022/10/31 01:53:47;;;;;;;2.80;2.60;;;;;;;-144.22;100.00;60274.75;6238311;28;20231;-63
2022/10/31 01:56:53;;;;;;;3.40;3.10;;;;;;;-144.22;100.00;60274.75;6221510;28;20239;-63
2022/10/31 02:00:01;;;;;;;3.23;3.03;;;;;;;-144.22;100.00;60274.75;6220834;28;20249;-64
2022/10/31 02:03:14;;;;;;;3.53;3.23;;;;;;;-144.22;100.00;60274.75;6249092;28;20252;-62
2022/10/31 02:06:36;;;;;;;2.93;2.73;;;;;;;-144.22;100.00;60274.75;6225542;28;20225;-62
2022/10/31 02:09:40;;;;;;;3.10;2.80;;;;;;;-144.22;100.00;60274.75;6242248;28;20281;-64
2022/10/31 02:12:43;;;;;;;3.07;2.87;;;;;;;-144.22;100.00;60274.75;6242240;28;20235;-63
2022/10/31 02:15:49;;;;;;;3.63;3.33;;;;;;;-144.22;100.00;60274.75;6223998;28;20235;-63
2022/10/31 02:18:52;;;;;;;3.10;2.80;;;;;;;-144.22;100.00;60274.75;6237084;28;20820;-63
2022/10/31 02:22:07;;;;;;;3.77;3.47;;;;;;;-144.22;100.00;60274.75;6241815;28;20727;-63
2022/10/31 02:25:27;;;;;;;3.27;2.97;;;;;;;-144.22;100.00;60274.75;6230884;28;20297;-63
2022/10/31 02:28:39;;;;;;;2.77;2.57;;;;;;;-144.22;100.00;60274.75;6224906;28;20232;-63
2022/10/31 02:32:20;;;;;;;2.60;2.40;;;;;;;-144.22;100.00;60274.75;6244194;28;20235;-63
2022/10/31 02:35:52;;;;;;;2.53;2.33;;;;;;;-144.22;100.00;60274.75;6228251;28;20264;-65
2022/10/31 02:39:30;;;;;;;2.23;2.03;;;;;;;-144.22;100.00;60274.75;6233259;28;20624;-63
2022/10/31 02:42:50;;;;;;;2.33;2.20;;;;;;;-144.22;100.00;60274.75;6126308;28;20235;-63
2022/10/31 02:46:19;;;;;;;2.30;2.10;;;;;;;-144.22;100.00;60274.75;6155266;28;20284;-65
2022/10/31 02:49:36;;;;;;;2.30;2.10;;;;;;;-144.22;100.00;60274.75;6152798;28;20294;-63
2022/10/31 02:52:39;;;;;;;2.40;2.20;;;;;;;-144.22;100.00;60274.75;6155390;28;20361;-63
2022/10/31 02:55:52;;;;;;;2.17;2.00;;;;;;;-144.22;100.00;60274.75;6118121;28;20857;-63
2022/10/31 02:59:01;;;;;;;2.20;1.90;;;;;;;-144.22;100.00;60274.75;6128712;28;20241;-63
2022/10/31 03:02:21;;;;;;;1.90;1.80;;;;;;;-144.22;100.00;60274.75;6129140;28;20227;-63
2022/10/31 03:06:00;;;;;;;2.20;1.93;;;;;;;-144.22;100.00;60274.75;6139275;28;20382;-63
2022/10/31 03:09:38;;;;;;;1.93;1.83;;;;;;;-144.22;100.00;60274.75;6124729;28;20240;-64
2022/10/31 03:12:54;;;;;;;1.83;1.73;;;;;;;-144.22;100.00;60274.75;6128943;29;20700;-63
2022/10/31 03:16:36;;;;;;;1.60;1.50;;;;;;;-144.22;100.00;60274.75;6132664;28;20248;-63
2022/10/31 03:19:42;;;;;;;1.53;1.40;;;;;;;-144.22;100.00;60274.75;6204274;28;20256;-63
2022/10/31 03:22:46;;;;;;;3.27;2.37;;;;;;;-144.22;100.00;60274.75;6218171;28;20242;-63
2022/10/31 03:25:50;;;;;;;1.80;1.70;;;;;;;-144.22;100.00;60274.75;6225409;28;20328;-63
2022/10/31 03:29:10;;;;;;;1.97;1.87;;;;;;;-144.22;100.00;60274.75;6228263;28;20240;-63
2022/10/31 03:32:50;;;;;;;2.00;1.90;;;;;;;-144.22;100.00;60274.75;6217651;28;20708;-62
2022/10/31 03:35:55;;;;;;;2.10;1.90;;;;;;;-144.22;100.00;60274.75;6201809;28;20230;-63
2022/10/31 03:39:01;;;;;;;2.10;1.90;;;;;;;-144.22;100.00;60274.75;6220804;28;20241;-63
2022/10/31 03:42:30;;;;;;;2.17;2.07;;;;;;;-144.22;100.00;60274.75;6245350;28;20210;-67
2022/10/31 03:45:35;;;;;;;1.80;1.70;;;;;;;-144.22;100.00;60274.75;6232755;28;20248;-64
2022/10/31 03:48:38;;;;;;;2.40;2.20;;;;;;;-144.22;100.00;60274.75;6222953;28;20240;-63
2022/10/31 03:51:57;;;;;;;3.07;2.07;;;;;;;-144.22;100.00;60274.75;6206983;28;20232;-63
2022/10/31 03:55:08;;;;;;;2.07;1.97;;;;;;;-144.22;100.00;60274.75;6215048;28;20251;-63
2022/10/31 03:58:18;;;;;;;1.97;1.87;;;;;;;-144.22;100.00;60274.75;6200525;28;20305;-63
2022/10/31 04:01:32;;;;;;;3.53;2.27;;;;;;;-144.22;100.00;60274.75;6223979;28;20234;-63
2022/10/31 04:04:35;;;;;;;2.00;1.90;;;;;;;-144.22;100.00;60274.75;6230017;28;20233;-63
2022/10/31 04:07:45;;;;;;;1.60;1.50;;;;;;;-144.22;100.00;60274.75;6219148;28;20230;-63
2022/10/31 04:10:49;;;;;;;2.30;2.10;;;;;;;-144.22;100.00;60274.75;6220375;28;20267;-63
2022/10/31 04:13:55;;;;;;;2.07;1.90;;;;;;;-144.22;100.00;60274.75;6210133;28;20446;-63
2022/10/31 04:16:57;;;;;;;2.13;1.93;;;;;;;-144.22;100.00;60274.75;6216309;28;20234;-63
2022/10/31 04:20:08;;;;;;;1.60;1.50;;;;;;;-144.22;100.00;60274.75;6219225;28;20337;-63
2022/10/31 04:23:27;;;;;;;2.40;2.20;;;;;;;-144.22;100.00;60274.75;6211947;28;20279;-63
2022/10/31 04:26:29;;;;;;;2.00;1.87;;;;;;;-144.22;100.00;60274.75;6231348;28;20219;-63
2022/10/31 04:29:32;;;;;;;1.67;1.57;;;;;;;-144.22;100.00;60274.75;6224954;28;20281;-63
2022/10/31 04:32:34;;;;;;;1.90;1.80;;;;;;;-144.22;100.00;60274.75;6220818;28;20241;-63
2022/10/31 04:35:36;;;;;;;1.87;1.70;;;;;;;-144.22;100.00;60274.75;6234112;28;20249;-63
2022/10/31 04:38:39;;;;;;;2.97;1.83;;;;;;;-144.22;100.00;60274.75;6207582;28;20227;-63
2022/10/31 04:41:50;;;;;;;1.70;1.60;;;;;;;-144.22;100.00;60274.75;6226046;28;20253;-63
2022/10/31 04:44:53;;;;;;;2.00;1.90;;;;;;;-144.22;100.00;60274.75;6209541;28;20595;-63
2022/10/31 04:47:55;;;;;;;1.83;1.63;;;;;;;-144.22;100.00;60274.75;6205602;28;20235;-63
2022/10/31 04:51:01;;;;;;;1.40;1.30;;;;;;;-144.22;100.00;60274.75;6220158;28;20267;-63
2022/10/31 04:54:03;;;;;;;2.40;2.20;;;;;;;-144.22;100.00;60274.75;6221566;28;20228;-63
2022/10/31 04:57:25;;;;;;;2.00;1.87;;;;;;;-144.22;100.00;60274.75;6225491;28;20463;-63
2022/10/31 05:00:29;;;;;;;1.80;1.70;;;;;;;-144.22;100.00;60274.75;6227853;28;20226;-63
2022/10/31 05:03:31;;;;;;;1.90;1.80;;;;;;;-144.22;100.00;60274.75;6222792;28;20228;-63
2022/10/31 05:06:33;;;;;;;1.43;1.33;;;;;;;-144.22;100.00;60274.75;6214332;28;20602;-63
2022/10/31 05:09:36;;;;;;;1.50;1.40;;;;;;;-144.22;100.00;60274.75;6214964;28;20228;-63
2022/10/31 05:12:49;;;;;;;1.50;1.40;;;;;;;-144.22;100.00;60274.75;6220770;28;20727;-64
2022/10/31 05:16:21;;;;;;;2.73;1.37;;;;;;;-144.22;100.00;60274.75;6175030;28;20236;-63
2022/10/31 05:19:41;;;;;;;1.30;1.20;;;;;;;-144.22;100.00;60274.75;6220328;28;20236;-63
2022/10/31 05:23:06;;;;;;;1.40;1.30;;;;;;;-144.22;100.00;60274.75;6221776;28;20281;-63
2022/10/31 05:26:08;;;;;;;4.47;1.80;;;;;;;-144.22;100.00;60274.75;6226939;28;20229;-63
2022/10/31 05:29:11;;;;;;;1.53;1.43;;;;;;;-144.22;100.00;60274.75;6218483;28;20229;-63
2022/10/31 05:32:13;;;;;;;2.37;1.73;;;;;;;-144.22;100.00;60274.75;6207615;28;20228;-63
2022/10/31 05:35:34;;;;;;;3.60;2.80;;;;;;;-144.22;100.00;60274.75;6221901;28;20224;-62
2022/10/31 05:39:08;;;;;;;3.27;2.97;;;;;;;-144.22;100.00;60274.75;6218468;28;20240;-63
2022/10/31 05:42:15;;;;;;;5.67;3.00;;;;;;;-144.22;100.00;60274.75;6216598;28;20286;-64
2022/10/31 05:45:18;;;;;;;3.00;2.70;;;;;;;-144.22;100.00;60274.75;6218920;28;20688;-63
2022/10/31 05:48:27;;;;;;;2.70;2.50;;;;;;;-144.22;100.00;60274.75;6220667;28;20224;-63
2022/10/31 05:51:52;;;;;;;3.90;3.30;;;;;;;-144.22;100.00;60274.75;6204235;28;20224;-63
2022/10/31 05:54:59;;;;;;;3.47;2.60;;;;;;;-144.22;100.00;60274.75;6205455;28;20731;-63
2022/10/31 05:58:03;;;;;;;2.40;2.20;;;;;;;-144.22;100.00;60274.75;6226660;28;20224;-64
2022/10/31 06:01:07;;;;;;;5.33;2.00;;;;;;;-144.22;100.00;60274.75;6221760;28;20777;-63
2022/10/31 06:04:10;;;;;;;3.40;1.77;;;;;;;-144.22;100.00;60274.75;6218102;28;20236;-63
2022/10/31 06:07:12;;;;;;;3.47;2.00;;;;;;;-144.22;100.00;60274.75;6218349;28;20228;-63
2022/10/31 06:10:14;;;;;;;1.87;1.77;;;;;;;-144.22;100.00;60274.75;6213650;28;20243;-63
2022/10/31 06:13:17;;;;;;;2.30;1.67;;;;;;;-144.22;100.00;60274.75;6218533;28;20231;-63
2022/10/31 06:16:24;;;;;;;1.50;1.40;;;;;;;-144.22;100.00;60274.75;6215286;28;20322;-63
2022/10/31 06:19:29;;;;;;;1.50;1.40;;;;;;;-144.22;100.00;60274.75;6218916;28;20707;-63
2022/10/31 06:22:33;;;;;;;1.73;1.63;;;;;;;-144.22;100.00;60274.75;6218847;28;20228;-63
2022/10/31 06:25:35;;;;;;;1.53;1.43;;;;;;;-144.22;100.00;60274.75;6215234;28;20599;-63
2022/10/31 06:28:38;;;;;;;1.60;1.50;;;;;;;-144.22;100.00;60274.75;6216562;28;20224;-63
2022/10/31 06:31:52;;;;;;;1.87;1.73;;;;;;;-144.22;100.00;60274.75;6216503;28;20236;-62
2022/10/31 06:34:54;;;;;;;2.73;1.83;;;;;;;-144.22;100.00;60274.75;6218248;28;20232;-62
2022/10/31 06:37:57;;;;;;;5.83;2.27;;;;;;;-144.22;100.00;60274.75;6218779;28;20247;-64
2022/10/31 06:41:18;;;;;;;1.80;1.70;;;;;;;-144.22;100.00;60274.75;6242121;28;20212;-67
2022/10/31 06:44:22;;;;;;;1.93;1.83;;;;;;;-144.22;100.00;60274.75;6217714;28;20238;-63
2022/10/31 06:47:33;;;;;;;1.73;1.63;;;;;;;-144.22;100.00;60274.75;6215958;28;20229;-63
2022/10/31 06:50:51;;;;;;;1.60;1.50;;;;;;;-144.22;100.00;60274.75;6224364;28;20260;-63
2022/10/31 06:54:00;;;;;;;2.10;1.90;;;;;;;-144.22;100.00;60274.75;6222997;28;20243;-63
2022/10/31 06:57:02;;;;;;;1.77;1.67;;;;;;;-144.22;100.00;60274.75;6213015;28;20275;-67
2022/10/31 07:00:06;;;;;;;3.33;2.03;;;;;;;-144.22;100.00;60274.75;6211882;28;20595;-63
2022/10/31 07:03:17;;;;;;;1.50;1.40;;;;;;;-144.22;100.00;60274.75;6220650;28;20221;-63
2022/10/31 07:06:19;;;;;;;1.87;1.77;;;;;;;-144.22;100.00;60274.75;6217556;28;20228;-63
2022/10/31 07:09:22;;;;;;;1.77;1.67;;;;;;;-144.22;100.00;60274.75;6218522;28;20231;-63
2022/10/31 07:12:24;;;;;;;1.80;1.70;;;;;;;-144.22;100.00;60274.75;6219445;28;20248;-63
2022/10/31 07:15:38;;;;;;;2.17;2.00;;;;;;;-144.22;100.00;60274.75;6210877;28;20708;-63
2022/10/31 07:18:40;;;;;;;2.70;2.03;;;;;;;-144.22;100.00;60274.75;6206200;28;20236;-63
2022/10/31 07:21:43;;;;;;;1.93;1.83;;;;;;;-144.22;100.00;60274.75;6218059;28;20640;-63
2022/10/31 07:24:48;;;;;;;1.70;1.60;;;;;;;-144.22;100.00;60274.75;6218176;28;20633;-63
2022/10/31 07:28:10;;;;;;;2.20;2.00;;;;;;;-144.22;100.00;60274.75;6220592;28;20242;-63
2022/10/31 07:31:12;;;;;;;2.00;1.90;;;;;;;-144.22;100.00;60274.75;6220817;28;20732;-63
2022/10/31 07:34:16;;;;;;;1.80;1.70;;;;;;;-144.22;100.00;60274.75;6219241;28;20244;-63
2022/10/31 07:37:38;;;;;;;4.33;2.20;;;;;;;-144.22;100.00;60274.75;6208749;28;20283;-63
2022/10/31 07:40:42;;;;;;;2.20;1.90;;;;;;;-144.22;100.00;60274.75;6224848;28;20582;-63
2022/10/31 07:43:44;;;;;;;2.23;1.87;;;;;;;-144.22;100.00;60274.75;6231659;28;20640;-63
2022/10/31 07:46:52;;;;;;;1.97;1.87;;;;;;;-144.22;100.00;60274.75;6220680;28;20228;-63
2022/10/31 07:50:35;;;;;;;1.80;1.70;;;;;;;-144.22;100.00;60274.75;6228586;28;20240;-63
2022/10/31 07:54:13;;;;;;;1.57;1.47;;;;;;;-144.22;100.00;60274.75;6146779;28;20313;-63
2022/10/31 07:57:15;;;;;;;1.63;1.50;;;;;;;-144.22;100.00;60274.75;6214513;28;20222;-63
2022/10/31 08:00:22;;;;;;;1.63;1.50;;;;;;;-144.22;100.00;60274.75;6218650;28;20226;-63
2022/10/31 08:03:24;;;;;;;1.90;1.80;;;;;;;-144.22;100.00;60274.75;6221010;28;20329;-63
2022/10/31 08:06:45;;;;;;;2.10;2.00;;;;;;;-144.22;100.00;60274.75;6219370;28;20239;-63
2022/10/31 08:09:59;;;;;;;1.70;1.60;;;;;;;-144.22;100.00;60274.75;6216439;28;20596;-64
2022/10/31 08:13:08;;;;;;;1.70;1.60;;;;;;;-144.22;100.00;60274.75;6215240;28;20592;-63
2022/10/31 08:16:14;;;;;;;1.30;1.20;;;;;;;-144.22;100.00;60274.75;6228489;28;20239;-64
2022/10/31 08:19:27;;;;;;;1.97;1.33;;;;;;;-144.22;100.00;60274.75;6219548;28;20280;-63
2022/10/31 08:22:30;;;;;;;1.80;1.57;;;;;;;-144.22;100.00;60274.75;6218265;28;20344;-64
2022/10/31 08:25:35;;;;;;;2.00;1.33;;;;;;;-144.22;100.00;60274.75;6208627;28;20252;-63
2022/10/31 08:28:40;;;;;;;1.50;1.40;;;;;;;-144.22;100.00;60274.75;6214369;28;20237;-63
2022/10/31 08:31:42;;;;;;;1.50;1.30;;;;;;;-144.22;100.00;60274.75;6223526;28;20234;-63
2022/10/31 08:35:03;;;;;;;2.23;1.73;;;;;;;-144.22;100.00;60274.75;6214292;28;20236;-63
2022/10/31 08:38:24;;;;;;;2.70;1.93;;;;;;;-144.22;100.00;60274.75;6220681;28;20232;-63
2022/10/31 08:41:26;;;;;;;2.27;1.93;;;;;;;-144.22;100.00;60274.75;6221556;28;20243;-63
2022/10/31 08:44:29;;;;;;;3.03;2.20;;;;;;;-144.22;100.00;60274.75;6216680;28;20583;-64
2022/10/31 08:47:31;;;;;;;2.50;2.30;;;;;;;-144.22;100.00;60274.75;6218932;28;20224;-63
2022/10/31 08:50:35;;;;;;;2.10;1.90;;;;;;;-144.22;100.00;60274.75;6173238;28;1244666;-64
2022/10/31 08:53:37;;;;;;;2.20;2.00;;;;;;;-144.22;100.00;60274.75;6220184;28;20370;-63
2022/10/31 08:57:11;;;;;;;1.90;1.60;;;;;;;-144.22;100.00;60274.75;6221878;28;20235;-63
2022/10/31 09:00:17;;;;;;;2.43;2.20;;;;;;;-144.22;100.00;60274.75;6221977;28;20585;-63
2022/10/31 09:03:30;;;;;;;2.00;1.87;;;;;;;-144.22;100.00;60274.75;6229377;28;20236;-63
2022/10/31 09:06:34;;;;;;;2.40;2.20;;;;;;;-144.22;100.00;60274.75;6224894;28;20248;-63
2022/10/31 09:09:38;;;;;;;2.40;2.20;;;;;;;-144.22;100.00;60274.75;6223604;28;20242;-63
2022/10/31 09:12:41;;;;;;;2.13;2.00;;;;;;;-144.22;100.00;60274.75;6223017;28;20278;-63
2022/10/31 09:16:00;;;;;;;2.33;2.13;;;;;;;-144.22;100.00;60274.75;6221832;28;20696;-63
2022/10/31 09:19:04;;;;;;;2.70;2.50;;;;;;;-144.22;100.00;60274.75;6223871;28;20235;-64
2022/10/31 09:22:12;;;;;;;3.07;2.77;;;;;;;-144.22;100.00;60274.75;6216966;28;20232;-63
2022/10/31 09:25:14;;;;;;;3.37;2.90;;;;;;;-144.22;100.00;60274.75;6201129;28;20727;-63
2022/10/31 09:28:23;;;;;;;3.10;2.87;;;;;;;-144.22;100.00;60274.75;6215710;28;20227;-63
2022/10/31 09:31:26;;;;;;;3.00;2.70;;;;;;;-144.22;100.00;60274.75;6202943;28;20247;-63
2022/10/31 09:34:41;;;;;;;2.97;2.70;;;;;;;-144.22;100.00;60274.75;6216806;28;20228;-63
2022/10/31 09:37:44;;;;;;;3.53;3.20;;;;;;;-144.22;100.00;60274.75;6216560;28;20258;-63
2022/10/31 09:41:09;;;;;;;3.40;3.10;;;;;;;-144.22;100.00;60274.75;6219818;28;20261;-64
2022/10/31 09:44:25;;;;;;;4.03;3.30;;;;;;;-144.22;100.00;60274.75;6209936;28;20244;-63
2022/10/31 09:47:45;;;;;;;4.20;3.27;;;;;;;-144.22;100.00;60274.75;6248681;28;20224;-67
2022/10/31 09:51:34;;;;;;;4.40;3.83;;;;;;;-144.22;100.00;60274.75;6240570;28;20758;-63
2022/10/31 09:55:00;;;;;;;4.40;4.00;;;;;;;-144.22;100.00;60274.75;6228076;28;20243;-63
2022/10/31 09:58:03;;;;;;;5.30;4.73;;;;;;;-144.22;100.00;60274.75;6218097;28;20239;-63
2022/10/31 10:01:06;;;;;;;7.33;5.23;;;;;;;-144.22;100.00;60274.75;6224929;28;20839;-63
2022/10/31 10:04:42;;;;;;;7.83;5.30;;;;;;;-144.22;100.00;60274.75;6219581;28;20602;-64
2022/10/31 10:08:20;;;;;;;5.40;4.90;;;;;;;-144.22;100.00;60274.75;6220348;28;20236;-63
2022/10/31 10:11:27;;;;;;;5.97;5.33;;;;;;;-144.22;100.00;60274.75;6216035;28;20703;-63
2022/10/31 10:14:38;;;;;;;6.23;5.57;;;;;;;-144.22;100.00;60274.75;6217201;28;20247;-63
2022/10/31 10:18:09;;;;;;;7.77;5.73;;;;;;;-144.22;100.00;60274.75;6214249;28;20607;-63
2022/10/31 10:21:14;;;;;;;6.53;5.23;;;;;;;-144.22;100.00;60274.75;6201948;28;20242;-63
2022/10/31 10:24:16;;;;;;;8.53;5.73;;;;;;;-144.22;100.00;60274.75;6217300;28;20295;-63
2022/10/31 10:27:32;;;;;;;7.10;6.17;;;;;;;-144.22;100.00;60274.75;6217796;28;20781;-64
2022/10/31 10:30:42;;;;;;;6.17;5.47;;;;;;;-144.22;100.00;60274.75;6218807;28;20231;-63
2022/10/31 10:34:08;;;;;;;6.73;5.60;;;;;;;-144.22;100.00;60274.75;6216945;28;20239;-63
2022/10/31 10:37:30;;;;;;;7.57;6.50;;;;;;;-144.22;100.00;60274.75;6212088;28;20221;-63
2022/10/31 10:40:33;;;;;;;7.83;6.87;;;;;;;-144.22;100.00;60274.75;6216334;28;20236;-63
2022/10/31 10:43:38;;;;;;;10.37;8.23;;;;;;;-144.22;100.00;60274.75;6218426;28;20230;-64
2022/10/31 10:50:21;;;;;;;9.73;6.70;;;;;;;-144.22;100.00;60274.75;6216049;28;20805;-62
2022/10/31 10:53:59;;;;;;;9.90;8.53;;;;;;;-144.22;100.00;60274.75;6217348;28;20367;-63
2022/10/31 10:57:22;;;;;;;9.63;7.97;;;;;;;-144.22;100.00;60274.75;6219776;28;20600;-66
2022/10/31 11:00:27;;;;;;;9.10;7.67;;;;;;;-144.22;100.00;60274.75;6218296;28;20304;-63
2022/10/31 11:03:34;;;;;;;10.07;7.80;;;;;;;-144.22;100.00;60274.75;6220111;28;20231;-63
2022/10/31 11:06:36;;;;;;;7.97;7.17;;;;;;;-144.22;100.00;60274.75;6217734;28;20865;-64
2022/10/31 11:09:38;;;;;;;8.10;7.27;;;;;;;-144.22;100.00;60274.75;6224411;28;20612;-64
2022/10/31 11:12:44;;;;;;;9.23;7.93;;;;;;;-144.22;100.00;60274.75;6221320;28;20263;-63
2022/10/31 11:16:12;;;;;;;9.40;7.90;;;;;;;-144.22;100.00;60274.75;6217391;28;20238;-63
2022/10/31 11:19:23;;;;;;;9.57;8.63;;;;;;;-144.22;100.00;60274.75;6209753;28;20241;-63
2022/10/31 11:22:26;;;;;;;9.20;7.20;;;;;;;-144.22;100.00;60274.75;6205294;28;20219;-64
2022/10/31 11:25:28;;;;;;;10.87;8.13;;;;;;;-144.22;100.00;60274.75;6215575;28;20236;-63
2022/10/31 11:28:34;;;;;;;11.40;7.93;;;;;;;-144.22;100.00;60274.75;6221680;28;20235;-63
2022/10/31 11:31:36;;;;;;;8.00;7.20;;;;;;;-144.22;100.00;60274.75;6216268;28;20412;-64
2022/10/31 11:34:45;;;;;;;10.07;7.80;;;;;;;-144.22;100.00;60274.75;6217990;28;20307;-64
2022/10/31 11:37:50;;;;;;;13.27;9.40;;;;;;;-144.22;100.00;60274.75;6219595;28;20723;-64
2022/10/31 11:41:16;;;;;;;10.13;8.20;;;;;;;-144.22;100.00;60274.75;6210307;28;20716;-63
2022/10/31 11:44:26;;;;;;;10.03;8.93;;;;;;;-144.22;100.00;60274.75;6223881;28;20715;-63
2022/10/31 11:47:32;;;;;;;9.40;8.50;;;;;;;-144.22;100.00;60274.75;6217322;28;20233;-63
2022/10/31 11:50:39;;;;;;;12.33;8.93;;;;;;;-144.22;100.00;60274.75;6215837;28;20319;-64
2022/10/31 11:53:53;;;;;;;9.27;8.30;;;;;;;-144.22;100.00;60274.75;6217816;28;20255;-64
2022/10/31 11:57:00;;;;;;;9.93;7.27;;;;;;;-144.22;100.00;60274.75;6220606;28;20224;-64
2022/10/31 12:00:19;;;;;;;8.97;7.97;;;;;;;-144.22;100.00;60274.75;6222195;28;20700;-63
2022/10/31 12:03:48;;;;;;;11.73;9.73;;;;;;;-144.22;100.00;60274.75;6218236;28;20718;-63
2022/10/31 12:06:52;;;;;;;10.37;8.30;;;;;;;-144.22;100.00;60274.75;6215925;28;20245;-63
2022/10/31 12:09:54;;;;;;;10.47;8.23;;;;;;;-144.22;100.00;60274.75;6215348;28;20306;-63
2022/10/31 12:13:28;;;;;;;9.93;8.87;;;;;;;-144.22;100.00;60274.75;6214441;28;20243;-63
2022/10/31 12:16:48;;;;;;;10.83;8.97;;;;;;;-144.22;100.00;60274.75;6216809;28;20281;-63
2022/10/31 12:20:17;;;;;;;11.17;8.90;;;;;;;-144.22;100.00;60274.75;6224028;28;20605;-63
2022/10/31 12:23:40;;;;;;;9.47;8.23;;;;;;;-144.22;100.00;60274.75;6204561;28;20250;-63
2022/10/31 12:27:03;;;;;;;11.83;10.17;;;;;;;-144.22;100.00;60274.75;6223169;28;20812;-63
2022/10/31 12:30:27;;;;;;;12.40;11.10;;;;;;;-144.22;100.00;60274.75;6231247;28;20217;-63
2022/10/31 12:33:59;;;;;;;11.23;9.67;;;;;;;-144.22;100.00;60274.75;6218387;28;20231;-63
2022/10/31 12:37:48;;;;;;;9.83;8.80;;;;;;;-144.22;100.00;60274.75;6217197;28;20620;-63
2022/10/31 12:41:13;;;;;;;10.30;9.20;;;;;;;-144.22;100.00;60274.75;6181212;28;20240;-63
2022/10/31 12:44:36;;;;;;;10.03;8.97;;;;;;;-144.22;100.00;60274.75;6182463;28;20250;-62
2022/10/31 12:48:10;;;;;;;10.20;8.70;;;;;;;-144.22;100.00;60274.75;6181427;28;20241;-62
2022/10/31 12:51:46;;;;;;;10.10;8.97;;;;;;;-144.22;100.00;60274.75;6136412;28;20328;-63
2022/10/31 12:55:16;;;;;;;9.70;8.63;;;;;;;-144.22;100.00;60274.75;6177704;28;20272;-63
2022/10/31 12:58:31;;;;;;;10.67;9.27;;;;;;;-144.22;100.00;60274.75;6182251;28;20519;-63
2022/10/31 13:01:51;;;;;;;9.87;8.80;;;;;;;-144.22;100.00;60274.75;6213814;28;20244;-67
2022/10/31 13:05:13;;;;;;;10.60;9.03;;;;;;;-144.22;100.00;60274.75;6191091;28;20233;-62
2022/10/31 13:08:24;;;;;;;10.27;9.17;;;;;;;-144.22;100.00;60274.75;6186935;28;20225;-62
2022/10/31 13:11:35;;;;;;;8.47;7.57;;;;;;;-144.22;100.00;60274.75;6183062;28;20275;-63
2022/10/31 13:14:48;;;;;;;10.47;9.40;;;;;;;-144.22;100.00;60274.75;6188765;28;20323;-63
2022/10/31 13:17:57;;;;;;;10.80;9.70;;;;;;;-144.22;100.00;60274.75;6221613;28;20755;-63
2022/10/31 13:21:07;;;;;;;10.57;9.47;;;;;;;-144.22;100.00;60274.75;6215989;28;20235;-63
2022/10/31 13:24:16;;;;;;;10.33;8.90;;;;;;;-144.22;100.00;60274.75;6219674;28;20822;-63
2022/10/31 13:27:25;;;;;;;8.93;8.13;;;;;;;-144.22;100.00;60274.75;6221580;28;20265;-64
2022/10/31 13:30:31;;;;;;;8.73;7.93;;;;;;;-144.22;100.00;60274.75;6220604;28;20238;-63
2022/10/31 13:34:09;;;;;;;12.30;11.10;;;;;;;-144.22;100.00;60274.75;6216088;28;20256;-64
2022/10/31 13:37:33;;;;;;;11.97;10.27;;;;;;;-144.22;100.00;60274.75;6210249;28;20305;-63
2022/10/31 13:40:55;;;;;;;11.37;10.17;;;;;;;-144.22;100.00;60274.75;6214709;28;20266;-63
2022/10/31 13:44:03;;;;;;;14.30;12.13;;;;;;;-144.22;100.00;60274.75;6222187;28;20262;-63
2022/10/31 13:47:25;;;;;;;10.73;9.63;;;;;;;-144.22;100.00;60274.75;6220990;28;20623;-66
2022/10/31 13:50:32;;;;;;;13.67;12.20;;;;;;;-144.22;100.00;60274.75;6228271;28;20719;-62
2022/10/31 13:54:20;;;;;;;10.53;9.50;;;;;;;-144.22;100.00;60274.75;6222382;28;20648;-63
2022/10/31 13:57:34;;;;;;;12.00;10.73;;;;;;;-144.22;100.00;60274.75;6211445;28;20239;-63
2022/10/31 14:00:37;;;;;;;11.73;9.03;;;;;;;-144.22;100.00;60274.75;6215886;28;20814;-63
2022/10/31 14:03:41;;;;;;;10.50;9.50;;;;;;;-144.22;100.00;60274.75;6223530;28;20231;-63
2022/10/31 14:07:21;;;;;;;10.60;9.50;;;;;;;-144.22;100.00;60274.75;6219705;28;20822;-63
2022/10/31 14:10:27;;;;;;;11.73;10.53;;;;;;;-144.22;100.00;60274.75;6216098;28;20236;-62
2022/10/31 14:13:41;;;;;;;11.27;10.03;;;;;;;-144.22;100.00;60274.75;6219965;28;20778;-63
2022/10/31 14:16:45;;;;;;;12.90;10.60;;;;;;;-144.22;100.00;60274.75;6221200;28;20275;-62
2022/10/31 14:20:21;;;;;;;11.67;10.47;;;;;;;-144.22;100.00;60274.75;6223813;28;20726;-64
2022/10/31 14:23:30;;;;;;;10.83;9.83;;;;;;;-144.22;100.00;60274.75;6215686;28;20762;-63
2022/10/31 14:26:34;;;;;;;11.33;10.20;;;;;;;-144.22;100.00;60274.75;6227069;28;20228;-63
2022/10/31 14:29:36;;;;;;;12.20;10.30;;;;;;;-144.22;100.00;60274.75;6223163;28;20221;-63